sensor_id;sensor_type;location;lat;lon;timestamp;P1;durP1;ratioP1;P2;durP2;ratioP2
20245;SDS011;10281;54.406;18.556;2023-09-19T00:00:34;21.10;;;18.70;;
20245;SDS011;10281;54.406;18.556;2023-09-19T00:03:01;22.37;;;20.17;;
20245;SDS011;10281;54.406;18.556;2023-09-19T00:05:30;22.90;;;19.93;;
20245;SDS011;10281;54.406;18.556;2023-09-19T00:08:01;21.67;;;19.33;;
20245;SDS011;10281;54.406;18.556;2023-09-19T00:10:30;22.53;;;19.30;;
20245;SDS011;10281;54.406;18.556;2023-09-19T00:13:00;20.47;;;18.40;;
20245;SDS011;10281;54.406;18.556;2023-09-19T00:15:37;20.80;;;18.80;;
20245;SDS011;10281;54.406;18.556;2023-09-19T00:18:06;21.13;;;18.93;;
20245;SDS011;10281;54.406;18.556;2023-09-19T00:20:36;20.90;;;18.77;;
20245;SDS011;10281;54.406;18.556;2023-09-19T00:23:04;21.63;;;19.50;;
20245;SDS011;10281;54.406;18.556;2023-09-19T00:25:32;22.53;;;20.23;;
20245;SDS011;10281;54.406;18.556;2023-09-19T00:28:01;21.43;;;19.23;;
20245;SDS011;10281;54.406;18.556;2023-09-19T00:30:28;22.20;;;19.80;;
20245;SDS011;10281;54.406;18.556;2023-09-19T00:32:54;23.53;;;20.97;;
20245;SDS011;10281;54.406;18.556;2023-09-19T00:35:21;22.07;;;19.87;;
20245;SDS011;10281;54.406;18.556;2023-09-19T00:37:50;22.30;;;19.13;;
20245;SDS011;10281;54.406;18.556;2023-09-19T00:40:18;21.70;;;19.43;;
20245;SDS011;10281;54.406;18.556;2023-09-19T00:42:47;22.57;;;20.10;;
20245;SDS011;10281;54.406;18.556;2023-09-19T00:45:16;22.17;;;19.93;;
20245;SDS011;10281;54.406;18.556;2023-09-19T00:47:44;22.00;;;19.80;;
20245;SDS011;10281;54.406;18.556;2023-09-19T00:50:16;21.43;;;19.33;;
20245;SDS011;10281;54.406;18.556;2023-09-19T00:52:48;21.63;;;19.33;;
20245;SDS011;10281;54.406;18.556;2023-09-19T00:55:16;23.80;;;21.50;;
20245;SDS011;10281;54.406;18.556;2023-09-19T00:57:46;24.20;;;21.13;;
20245;SDS011;10281;54.406;18.556;2023-09-19T01:00:15;22.13;;;19.77;;
20245;SDS011;10281;54.406;18.556;2023-09-19T01:02:44;23.30;;;21.00;;
20245;SDS011;10281;54.406;18.556;2023-09-19T01:05:11;24.33;;;21.20;;
20245;SDS011;10281;54.406;18.556;2023-09-19T01:07:38;21.53;;;19.47;;
20245;SDS011;10281;54.406;18.556;2023-09-19T01:10:07;22.70;;;20.30;;
20245;SDS011;10281;54.406;18.556;2023-09-19T01:12:45;22.00;;;19.73;;
20245;SDS011;10281;54.406;18.556;2023-09-19T01:20:53;22.03;;;19.83;;
20245;SDS011;10281;54.406;18.556;2023-09-19T01:26:47;21.37;;;19.23;;
20245;SDS011;10281;54.406;18.556;2023-09-19T01:29:51;22.80;;;20.20;;
20245;SDS011;10281;54.406;18.556;2023-09-19T01:32:08;24.07;;;20.37;;
20245;SDS011;10281;54.406;18.556;2023-09-19T01:37:13;22.13;;;20.03;;
20245;SDS011;10281;54.406;18.556;2023-09-19T01:39:40;24.20;;;21.63;;
20245;SDS011;10281;54.406;18.556;2023-09-19T01:42:14;22.80;;;20.20;;
20245;SDS011;10281;54.406;18.556;2023-09-19T01:44:57;22.17;;;19.73;;
20245;SDS011;10281;54.406;18.556;2023-09-19T01:47:45;22.60;;;20.23;;
20245;SDS011;10281;54.406;18.556;2023-09-19T01:50:22;22.27;;;20.13;;
20245;SDS011;10281;54.406;18.556;2023-09-19T01:52:50;22.90;;;20.60;;
20245;SDS011;10281;54.406;18.556;2023-09-19T01:55:20;24.90;;;20.90;;
20245;SDS011;10281;54.406;18.556;2023-09-19T01:57:51;22.17;;;19.97;;
20245;SDS011;10281;54.406;18.556;2023-09-19T02:00:20;20.93;;;18.83;;
20245;SDS011;10281;54.406;18.556;2023-09-19T02:02:49;21.80;;;19.60;;
20245;SDS011;10281;54.406;18.556;2023-09-19T02:05:22;20.77;;;18.50;;
20245;SDS011;10281;54.406;18.556;2023-09-19T02:07:52;21.53;;;19.23;;
20245;SDS011;10281;54.406;18.556;2023-09-19T02:10:19;19.80;;;17.70;;
20245;SDS011;10281;54.406;18.556;2023-09-19T02:12:46;19.77;;;17.70;;
20245;SDS011;10281;54.406;18.556;2023-09-19T02:15:13;20.80;;;18.80;;
20245;SDS011;10281;54.406;18.556;2023-09-19T02:17:41;20.30;;;17.00;;
20245;SDS011;10281;54.406;18.556;2023-09-19T02:20:10;19.67;;;17.67;;
20245;SDS011;10281;54.406;18.556;2023-09-19T02:22:41;18.17;;;16.17;;
20245;SDS011;10281;54.406;18.556;2023-09-19T02:25:08;19.80;;;17.87;;
20245;SDS011;10281;54.406;18.556;2023-09-19T02:27:35;17.97;;;16.07;;
20245;SDS011;10281;54.406;18.556;2023-09-19T02:30:02;18.47;;;16.50;;
20245;SDS011;10281;54.406;18.556;2023-09-19T02:32:30;19.93;;;17.93;;
20245;SDS011;10281;54.406;18.556;2023-09-19T02:34:57;17.90;;;16.00;;
20245;SDS011;10281;54.406;18.556;2023-09-19T02:37:24;14.50;;;12.87;;
20245;SDS011;10281;54.406;18.556;2023-09-19T02:39:51;15.73;;;12.83;;
20245;SDS011;10281;54.406;18.556;2023-09-19T02:42:17;13.07;;;11.67;;
20245;SDS011;10281;54.406;18.556;2023-09-19T02:44:44;17.90;;;13.50;;
20245;SDS011;10281;54.406;18.556;2023-09-19T02:47:12;14.77;;;12.47;;
20245;SDS011;10281;54.406;18.556;2023-09-19T02:49:40;13.13;;;11.80;;
20245;SDS011;10281;54.406;18.556;2023-09-19T02:52:08;11.40;;;10.20;;
20245;SDS011;10281;54.406;18.556;2023-09-19T02:54:37;12.50;;;10.53;;
20245;SDS011;10281;54.406;18.556;2023-09-19T02:57:03;10.07;;;9.07;;
20245;SDS011;10281;54.406;18.556;2023-09-19T02:59:32;11.83;;;10.63;;
20245;SDS011;10281;54.406;18.556;2023-09-19T03:01:59;13.50;;;9.67;;
20245;SDS011;10281;54.406;18.556;2023-09-19T03:04:26;9.57;;;7.60;;
20245;SDS011;10281;54.406;18.556;2023-09-19T03:06:53;10.17;;;9.17;;
20245;SDS011;10281;54.406;18.556;2023-09-19T03:09:22;9.00;;;8.10;;
20245;SDS011;10281;54.406;18.556;2023-09-19T03:11:49;9.80;;;7.23;;
20245;SDS011;10281;54.406;18.556;2023-09-19T03:14:15;7.90;;;7.10;;
20245;SDS011;10281;54.406;18.556;2023-09-19T03:16:42;8.30;;;6.83;;
20245;SDS011;10281;54.406;18.556;2023-09-19T03:19:10;8.77;;;6.97;;
20245;SDS011;10281;54.406;18.556;2023-09-19T03:21:37;10.90;;;8.03;;
20245;SDS011;10281;54.406;18.556;2023-09-19T03:24:04;6.60;;;5.97;;
20245;SDS011;10281;54.406;18.556;2023-09-19T03:26:31;9.20;;;5.70;;
20245;SDS011;10281;54.406;18.556;2023-09-19T03:28:58;6.57;;;5.97;;
20245;SDS011;10281;54.406;18.556;2023-09-19T03:31:25;7.90;;;5.87;;
20245;SDS011;10281;54.406;18.556;2023-09-19T03:33:52;9.40;;;6.10;;
20245;SDS011;10281;54.406;18.556;2023-09-19T03:36:19;7.73;;;5.53;;
20245;SDS011;10281;54.406;18.556;2023-09-19T03:38:45;7.10;;;5.77;;
20245;SDS011;10281;54.406;18.556;2023-09-19T03:41:12;7.53;;;5.53;;
20245;SDS011;10281;54.406;18.556;2023-09-19T03:43:40;6.63;;;5.43;;
20245;SDS011;10281;54.406;18.556;2023-09-19T03:46:06;7.80;;;6.00;;
20245;SDS011;10281;54.406;18.556;2023-09-19T03:48:33;10.03;;;6.30;;
20245;SDS011;10281;54.406;18.556;2023-09-19T03:51:00;5.93;;;5.27;;
20245;SDS011;10281;54.406;18.556;2023-09-19T03:53:27;6.50;;;5.40;;
20245;SDS011;10281;54.406;18.556;2023-09-19T03:55:54;8.37;;;5.73;;
20245;SDS011;10281;54.406;18.556;2023-09-19T03:58:20;5.57;;;4.73;;
20245;SDS011;10281;54.406;18.556;2023-09-19T04:00:47;6.20;;;4.60;;
20245;SDS011;10281;54.406;18.556;2023-09-19T04:03:15;10.43;;;5.23;;
20245;SDS011;10281;54.406;18.556;2023-09-19T04:05:44;7.90;;;4.90;;
20245;SDS011;10281;54.406;18.556;2023-09-19T04:08:12;7.67;;;4.90;;
20245;SDS011;10281;54.406;18.556;2023-09-19T04:10:42;5.63;;;5.10;;
20245;SDS011;10281;54.406;18.556;2023-09-19T04:13:10;7.87;;;5.23;;
20245;SDS011;10281;54.406;18.556;2023-09-19T04:15:37;8.90;;;5.13;;
20245;SDS011;10281;54.406;18.556;2023-09-19T04:18:05;8.20;;;5.07;;
20245;SDS011;10281;54.406;18.556;2023-09-19T04:20:32;8.03;;;5.37;;
20245;SDS011;10281;54.406;18.556;2023-09-19T04:22:59;6.10;;;4.80;;
20245;SDS011;10281;54.406;18.556;2023-09-19T04:25:25;6.40;;;5.03;;
20245;SDS011;10281;54.406;18.556;2023-09-19T04:27:53;9.57;;;5.13;;
20245;SDS011;10281;54.406;18.556;2023-09-19T04:30:19;6.80;;;5.00;;
20245;SDS011;10281;54.406;18.556;2023-09-19T04:32:46;7.23;;;4.80;;
20245;SDS011;10281;54.406;18.556;2023-09-19T04:35:15;8.07;;;5.00;;
20245;SDS011;10281;54.406;18.556;2023-09-19T04:37:42;6.63;;;4.77;;
20245;SDS011;10281;54.406;18.556;2023-09-19T04:40:08;7.57;;;5.10;;
20245;SDS011;10281;54.406;18.556;2023-09-19T04:42:38;11.47;;;5.27;;
20245;SDS011;10281;54.406;18.556;2023-09-19T04:45:06;9.40;;;4.97;;
20245;SDS011;10281;54.406;18.556;2023-09-19T04:47:36;6.97;;;4.57;;
20245;SDS011;10281;54.406;18.556;2023-09-19T04:50:05;8.63;;;5.23;;
20245;SDS011;10281;54.406;18.556;2023-09-19T04:52:36;6.73;;;4.47;;
20245;SDS011;10281;54.406;18.556;2023-09-19T04:55:02;7.10;;;5.00;;
20245;SDS011;10281;54.406;18.556;2023-09-19T04:57:30;6.93;;;5.40;;
20245;SDS011;10281;54.406;18.556;2023-09-19T04:59:57;5.97;;;4.73;;
20245;SDS011;10281;54.406;18.556;2023-09-19T05:02:24;8.17;;;5.00;;
20245;SDS011;10281;54.406;18.556;2023-09-19T05:04:50;8.77;;;5.30;;
20245;SDS011;10281;54.406;18.556;2023-09-19T05:07:19;9.70;;;5.47;;
20245;SDS011;10281;54.406;18.556;2023-09-19T05:09:47;6.40;;;5.30;;
20245;SDS011;10281;54.406;18.556;2023-09-19T05:12:14;7.90;;;5.67;;
20245;SDS011;10281;54.406;18.556;2023-09-19T05:14:41;8.77;;;5.17;;
20245;SDS011;10281;54.406;18.556;2023-09-19T05:17:07;9.17;;;6.13;;
20245;SDS011;10281;54.406;18.556;2023-09-19T05:19:34;8.07;;;5.70;;
20245;SDS011;10281;54.406;18.556;2023-09-19T05:22:02;7.07;;;5.70;;
20245;SDS011;10281;54.406;18.556;2023-09-19T05:24:30;7.93;;;5.83;;
20245;SDS011;10281;54.406;18.556;2023-09-19T05:26:56;9.17;;;5.37;;
20245;SDS011;10281;54.406;18.556;2023-09-19T05:29:23;13.40;;;6.23;;
20245;SDS011;10281;54.406;18.556;2023-09-19T05:31:49;9.23;;;6.07;;
20245;SDS011;10281;54.406;18.556;2023-09-19T05:34:16;10.67;;;5.53;;
20245;SDS011;10281;54.406;18.556;2023-09-19T05:36:43;7.83;;;5.77;;
20245;SDS011;10281;54.406;18.556;2023-09-19T05:39:09;7.23;;;4.60;;
20245;SDS011;10281;54.406;18.556;2023-09-19T05:41:36;8.07;;;5.37;;
20245;SDS011;10281;54.406;18.556;2023-09-19T05:44:04;8.10;;;5.27;;
20245;SDS011;10281;54.406;18.556;2023-09-19T05:46:32;7.63;;;4.77;;
20245;SDS011;10281;54.406;18.556;2023-09-19T05:48:59;10.67;;;5.10;;
20245;SDS011;10281;54.406;18.556;2023-09-19T05:51:25;9.17;;;4.90;;
20245;SDS011;10281;54.406;18.556;2023-09-19T05:53:54;9.13;;;5.63;;
20245;SDS011;10281;54.406;18.556;2023-09-19T05:56:20;9.00;;;6.50;;
20245;SDS011;10281;54.406;18.556;2023-09-19T05:58:48;9.03;;;6.70;;
20245;SDS011;10281;54.406;18.556;2023-09-19T06:01:15;8.77;;;4.70;;
20245;SDS011;10281;54.406;18.556;2023-09-19T06:03:42;9.30;;;4.57;;
20245;SDS011;10281;54.406;18.556;2023-09-19T06:06:08;5.53;;;4.50;;
20245;SDS011;10281;54.406;18.556;2023-09-19T06:08:35;8.33;;;4.57;;
20245;SDS011;10281;54.406;18.556;2023-09-19T06:11:02;8.90;;;4.50;;
20245;SDS011;10281;54.406;18.556;2023-09-19T06:13:30;7.67;;;4.73;;
20245;SDS011;10281;54.406;18.556;2023-09-19T06:15:59;5.83;;;4.50;;
20245;SDS011;10281;54.406;18.556;2023-09-19T06:18:27;9.03;;;4.33;;
20245;SDS011;10281;54.406;18.556;2023-09-19T06:20:55;9.30;;;4.70;;
20245;SDS011;10281;54.406;18.556;2023-09-19T06:23:23;7.67;;;4.40;;
20245;SDS011;10281;54.406;18.556;2023-09-19T06:25:52;7.20;;;4.73;;
20245;SDS011;10281;54.406;18.556;2023-09-19T06:28:20;6.70;;;4.60;;
20245;SDS011;10281;54.406;18.556;2023-09-19T06:30:48;6.67;;;5.10;;
20245;SDS011;10281;54.406;18.556;2023-09-19T06:33:15;7.07;;;5.07;;
20245;SDS011;10281;54.406;18.556;2023-09-19T06:35:43;7.00;;;5.27;;
20245;SDS011;10281;54.406;18.556;2023-09-19T06:38:10;8.53;;;6.33;;
20245;SDS011;10281;54.406;18.556;2023-09-19T06:40:38;7.80;;;5.40;;
20245;SDS011;10281;54.406;18.556;2023-09-19T06:43:07;6.83;;;5.23;;
20245;SDS011;10281;54.406;18.556;2023-09-19T06:45:35;9.47;;;5.37;;
20245;SDS011;10281;54.406;18.556;2023-09-19T06:48:02;6.23;;;5.27;;
20245;SDS011;10281;54.406;18.556;2023-09-19T06:50:30;7.10;;;5.50;;
20245;SDS011;10281;54.406;18.556;2023-09-19T06:52:58;6.47;;;5.40;;
20245;SDS011;10281;54.406;18.556;2023-09-19T06:55:26;7.47;;;5.37;;
20245;SDS011;10281;54.406;18.556;2023-09-19T06:57:55;5.90;;;5.07;;
20245;SDS011;10281;54.406;18.556;2023-09-19T07:00:22;7.63;;;4.83;;
20245;SDS011;10281;54.406;18.556;2023-09-19T07:02:57;7.33;;;5.40;;
20245;SDS011;10281;54.406;18.556;2023-09-19T07:05:27;5.97;;;4.87;;
20245;SDS011;10281;54.406;18.556;2023-09-19T07:07:54;10.17;;;5.47;;
20245;SDS011;10281;54.406;18.556;2023-09-19T07:10:24;9.67;;;5.47;;
20245;SDS011;10281;54.406;18.556;2023-09-19T07:12:55;9.33;;;5.00;;
20245;SDS011;10281;54.406;18.556;2023-09-19T07:15:23;8.13;;;5.63;;
20245;SDS011;10281;54.406;18.556;2023-09-19T07:17:51;6.57;;;5.40;;
20245;SDS011;10281;54.406;18.556;2023-09-19T07:20:19;6.53;;;4.90;;
20245;SDS011;10281;54.406;18.556;2023-09-19T07:22:46;6.70;;;4.73;;
20245;SDS011;10281;54.406;18.556;2023-09-19T07:25:13;8.30;;;5.00;;
20245;SDS011;10281;54.406;18.556;2023-09-19T07:27:41;8.30;;;5.80;;
20245;SDS011;10281;54.406;18.556;2023-09-19T07:30:08;6.97;;;4.90;;
20245;SDS011;10281;54.406;18.556;2023-09-19T07:32:36;7.27;;;5.10;;
20245;SDS011;10281;54.406;18.556;2023-09-19T07:35:03;6.57;;;4.77;;
20245;SDS011;10281;54.406;18.556;2023-09-19T07:37:31;5.73;;;4.87;;
20245;SDS011;10281;54.406;18.556;2023-09-19T07:40:00;4.77;;;4.10;;
20245;SDS011;10281;54.406;18.556;2023-09-19T07:42:28;5.60;;;5.00;;
20245;SDS011;10281;54.406;18.556;2023-09-19T07:44:55;6.13;;;5.20;;
20245;SDS011;10281;54.406;18.556;2023-09-19T07:47:22;5.40;;;4.67;;
20245;SDS011;10281;54.406;18.556;2023-09-19T07:49:48;5.30;;;4.40;;
20245;SDS011;10281;54.406;18.556;2023-09-19T07:52:15;6.90;;;5.13;;
20245;SDS011;10281;54.406;18.556;2023-09-19T07:54:42;7.13;;;5.50;;
20245;SDS011;10281;54.406;18.556;2023-09-19T07:57:10;5.10;;;4.57;;
20245;SDS011;10281;54.406;18.556;2023-09-19T07:59:37;5.87;;;4.50;;
20245;SDS011;10281;54.406;18.556;2023-09-19T08:02:04;6.17;;;4.60;;
20245;SDS011;10281;54.406;18.556;2023-09-19T08:04:33;6.23;;;4.80;;
20245;SDS011;10281;54.406;18.556;2023-09-19T08:07:00;7.73;;;4.90;;
20245;SDS011;10281;54.406;18.556;2023-09-19T08:09:28;5.10;;;4.60;;
20245;SDS011;10281;54.406;18.556;2023-09-19T08:11:57;5.63;;;4.30;;
20245;SDS011;10281;54.406;18.556;2023-09-19T08:14:24;8.37;;;4.53;;
20245;SDS011;10281;54.406;18.556;2023-09-19T08:16:51;5.37;;;4.87;;
20245;SDS011;10281;54.406;18.556;2023-09-19T08:19:22;6.80;;;4.37;;
20245;SDS011;10281;54.406;18.556;2023-09-19T08:21:49;5.13;;;4.43;;
20245;SDS011;10281;54.406;18.556;2023-09-19T08:24:15;4.50;;;4.10;;
20245;SDS011;10281;54.406;18.556;2023-09-19T08:26:42;6.53;;;4.33;;
20245;SDS011;10281;54.406;18.556;2023-09-19T08:29:10;4.10;;;3.50;;
20245;SDS011;10281;54.406;18.556;2023-09-19T08:31:38;5.87;;;3.73;;
20245;SDS011;10281;54.406;18.556;2023-09-19T08:34:05;6.00;;;4.20;;
20245;SDS011;10281;54.406;18.556;2023-09-19T08:36:31;5.13;;;3.63;;
20245;SDS011;10281;54.406;18.556;2023-09-19T08:38:58;6.70;;;3.80;;
20245;SDS011;10281;54.406;18.556;2023-09-19T08:41:25;5.80;;;3.63;;
20245;SDS011;10281;54.406;18.556;2023-09-19T08:43:51;4.80;;;3.43;;
20245;SDS011;10281;54.406;18.556;2023-09-19T08:46:18;5.33;;;3.67;;
20245;SDS011;10281;54.406;18.556;2023-09-19T08:48:50;6.10;;;3.50;;
20245;SDS011;10281;54.406;18.556;2023-09-19T08:51:21;7.50;;;3.77;;
20245;SDS011;10281;54.406;18.556;2023-09-19T08:53:54;5.53;;;3.77;;
20245;SDS011;10281;54.406;18.556;2023-09-19T08:56:24;4.00;;;3.23;;
20245;SDS011;10281;54.406;18.556;2023-09-19T08:58:57;4.83;;;3.17;;
20245;SDS011;10281;54.406;18.556;2023-09-19T09:01:27;3.53;;;2.73;;
20245;SDS011;10281;54.406;18.556;2023-09-19T09:03:57;3.60;;;3.00;;
20245;SDS011;10281;54.406;18.556;2023-09-19T09:06:25;3.77;;;2.83;;
20245;SDS011;10281;54.406;18.556;2023-09-19T09:08:53;4.17;;;3.17;;
20245;SDS011;10281;54.406;18.556;2023-09-19T09:11:20;4.73;;;3.00;;
20245;SDS011;10281;54.406;18.556;2023-09-19T09:13:49;5.77;;;2.67;;
20245;SDS011;10281;54.406;18.556;2023-09-19T09:16:16;4.73;;;2.73;;
20245;SDS011;10281;54.406;18.556;2023-09-19T09:18:44;3.20;;;2.90;;
20245;SDS011;10281;54.406;18.556;2023-09-19T09:21:12;3.53;;;2.57;;
20245;SDS011;10281;54.406;18.556;2023-09-19T09:23:40;3.87;;;2.43;;
20245;SDS011;10281;54.406;18.556;2023-09-19T09:26:06;3.77;;;2.80;;
20245;SDS011;10281;54.406;18.556;2023-09-19T09:28:34;3.47;;;2.30;;
20245;SDS011;10281;54.406;18.556;2023-09-19T09:31:03;3.27;;;2.53;;
20245;SDS011;10281;54.406;18.556;2023-09-19T09:33:32;3.07;;;2.47;;
20245;SDS011;10281;54.406;18.556;2023-09-19T09:35:59;4.63;;;2.60;;
20245;SDS011;10281;54.406;18.556;2023-09-19T09:38:30;4.70;;;2.63;;
20245;SDS011;10281;54.406;18.556;2023-09-19T09:41:03;4.33;;;2.57;;
20245;SDS011;10281;54.406;18.556;2023-09-19T09:43:34;6.47;;;2.67;;
20245;SDS011;10281;54.406;18.556;2023-09-19T09:46:07;2.93;;;2.10;;
20245;SDS011;10281;54.406;18.556;2023-09-19T09:48:57;2.60;;;2.40;;
20245;SDS011;10281;54.406;18.556;2023-09-19T09:51:30;3.57;;;2.10;;
20245;SDS011;10281;54.406;18.556;2023-09-19T09:54:12;2.73;;;2.30;;
20245;SDS011;10281;54.406;18.556;2023-09-19T09:56:58;3.67;;;2.30;;
20245;SDS011;10281;54.406;18.556;2023-09-19T10:00:04;2.37;;;2.00;;
20245;SDS011;10281;54.406;18.556;2023-09-19T10:02:20;3.47;;;2.30;;
20245;SDS011;10281;54.406;18.556;2023-09-19T10:04:51;4.10;;;2.30;;
20245;SDS011;10281;54.406;18.556;2023-09-19T10:07:27;4.97;;;2.40;;
20245;SDS011;10281;54.406;18.556;2023-09-19T10:09:57;4.80;;;2.50;;
20245;SDS011;10281;54.406;18.556;2023-09-19T10:12:27;5.03;;;2.20;;
20245;SDS011;10281;54.406;18.556;2023-09-19T10:14:55;3.53;;;1.83;;
20245;SDS011;10281;54.406;18.556;2023-09-19T10:17:26;4.37;;;2.33;;
20245;SDS011;10281;54.406;18.556;2023-09-19T10:19:56;3.07;;;2.20;;
20245;SDS011;10281;54.406;18.556;2023-09-19T10:22:24;2.33;;;2.03;;
20245;SDS011;10281;54.406;18.556;2023-09-19T10:24:53;3.97;;;2.70;;
20245;SDS011;10281;54.406;18.556;2023-09-19T10:27:21;4.77;;;2.30;;
20245;SDS011;10281;54.406;18.556;2023-09-19T10:29:49;3.37;;;2.03;;
20245;SDS011;10281;54.406;18.556;2023-09-19T10:32:16;6.07;;;2.50;;
20245;SDS011;10281;54.406;18.556;2023-09-19T10:34:46;5.40;;;2.07;;
20245;SDS011;10281;54.406;18.556;2023-09-19T10:37:13;4.67;;;2.47;;
20245;SDS011;10281;54.406;18.556;2023-09-19T10:39:45;3.27;;;2.00;;
20245;SDS011;10281;54.406;18.556;2023-09-19T10:42:14;2.77;;;2.27;;
20245;SDS011;10281;54.406;18.556;2023-09-19T10:44:45;5.03;;;2.40;;
20245;SDS011;10281;54.406;18.556;2023-09-19T10:47:15;4.07;;;2.60;;
20245;SDS011;10281;54.406;18.556;2023-09-19T10:49:44;3.37;;;2.20;;
20245;SDS011;10281;54.406;18.556;2023-09-19T10:52:13;2.73;;;1.53;;
20245;SDS011;10281;54.406;18.556;2023-09-19T10:54:43;1.70;;;1.60;;
20245;SDS011;10281;54.406;18.556;2023-09-19T10:57:20;3.70;;;2.33;;
20245;SDS011;10281;54.406;18.556;2023-09-19T11:02:30;2.20;;;1.50;;
20245;SDS011;10281;54.406;18.556;2023-09-19T11:05:01;4.80;;;1.90;;
20245;SDS011;10281;54.406;18.556;2023-09-19T11:07:29;3.23;;;1.93;;
20245;SDS011;10281;54.406;18.556;2023-09-19T11:09:58;5.53;;;2.10;;
20245;SDS011;10281;54.406;18.556;2023-09-19T11:17:53;1.93;;;1.70;;
20245;SDS011;10281;54.406;18.556;2023-09-19T11:20:21;3.73;;;1.90;;
20245;SDS011;10281;54.406;18.556;2023-09-19T11:23:16;4.63;;;1.90;;
20245;SDS011;10281;54.406;18.556;2023-09-19T11:25:43;4.77;;;2.00;;
20245;SDS011;10281;54.406;18.556;2023-09-19T11:30:58;3.83;;;2.20;;
20245;SDS011;10281;54.406;18.556;2023-09-19T11:33:27;3.53;;;1.93;;
20245;SDS011;10281;54.406;18.556;2023-09-19T11:36:05;5.17;;;2.10;;
20245;SDS011;10281;54.406;18.556;2023-09-19T11:38:57;4.70;;;2.00;;
20245;SDS011;10281;54.406;18.556;2023-09-19T11:47:00;2.40;;;2.07;;
20245;SDS011;10281;54.406;18.556;2023-09-19T11:49:29;2.63;;;2.20;;
20245;SDS011;10281;54.406;18.556;2023-09-19T11:52:00;4.73;;;2.13;;
20245;SDS011;10281;54.406;18.556;2023-09-19T11:54:29;2.73;;;1.97;;
20245;SDS011;10281;54.406;18.556;2023-09-19T11:56:58;5.00;;;2.20;;
20245;SDS011;10281;54.406;18.556;2023-09-19T11:59:26;5.30;;;2.37;;
20245;SDS011;10281;54.406;18.556;2023-09-19T12:01:56;3.67;;;2.17;;
20245;SDS011;10281;54.406;18.556;2023-09-19T12:07:02;2.67;;;2.10;;
20245;SDS011;10281;54.406;18.556;2023-09-19T12:09:29;7.50;;;2.30;;
20245;SDS011;10281;54.406;18.556;2023-09-19T12:11:55;4.93;;;2.33;;
20245;SDS011;10281;54.406;18.556;2023-09-19T12:14:23;6.40;;;2.50;;
20245;SDS011;10281;54.406;18.556;2023-09-19T12:16:53;3.57;;;2.13;;
20245;SDS011;10281;54.406;18.556;2023-09-19T12:19:21;5.10;;;2.00;;
20245;SDS011;10281;54.406;18.556;2023-09-19T12:21:53;3.83;;;2.00;;
20245;SDS011;10281;54.406;18.556;2023-09-19T12:24:24;3.23;;;1.77;;
20245;SDS011;10281;54.406;18.556;2023-09-19T12:26:54;3.07;;;1.97;;
20245;SDS011;10281;54.406;18.556;2023-09-19T12:29:23;2.73;;;1.73;;
20245;SDS011;10281;54.406;18.556;2023-09-19T12:31:51;3.87;;;1.90;;
20245;SDS011;10281;54.406;18.556;2023-09-19T12:34:29;2.37;;;1.67;;
20245;SDS011;10281;54.406;18.556;2023-09-19T12:39:45;4.03;;;2.00;;
20245;SDS011;10281;54.406;18.556;2023-09-19T12:42:15;3.07;;;1.73;;
20245;SDS011;10281;54.406;18.556;2023-09-19T12:44:44;2.83;;;1.87;;
20245;SDS011;10281;54.406;18.556;2023-09-19T12:47:13;3.40;;;2.10;;
20245;SDS011;10281;54.406;18.556;2023-09-19T12:52:23;3.70;;;1.67;;
20245;SDS011;10281;54.406;18.556;2023-09-19T12:54:51;8.60;;;4.07;;
20245;SDS011;10281;54.406;18.556;2023-09-19T12:57:23;6.97;;;3.40;;
20245;SDS011;10281;54.406;18.556;2023-09-19T12:59:52;4.83;;;2.93;;
20245;SDS011;10281;54.406;18.556;2023-09-19T13:02:19;5.97;;;2.73;;
20245;SDS011;10281;54.406;18.556;2023-09-19T13:04:52;3.70;;;2.07;;
20245;SDS011;10281;54.406;18.556;2023-09-19T13:10:02;3.67;;;1.87;;
20245;SDS011;10281;54.406;18.556;2023-09-19T13:12:35;4.37;;;2.43;;
20245;SDS011;10281;54.406;18.556;2023-09-19T13:15:07;4.90;;;2.17;;
20245;SDS011;10281;54.406;18.556;2023-09-19T13:17:44;3.20;;;2.23;;
20245;SDS011;10281;54.406;18.556;2023-09-19T13:22:53;6.33;;;1.97;;
20245;SDS011;10281;54.406;18.556;2023-09-19T13:25:22;2.50;;;1.70;;
20245;SDS011;10281;54.406;18.556;2023-09-19T13:27:51;3.50;;;1.67;;
20245;SDS011;10281;54.406;18.556;2023-09-19T13:30:21;2.50;;;1.50;;
20245;SDS011;10281;54.406;18.556;2023-09-19T13:32:51;2.20;;;1.77;;
20245;SDS011;10281;54.406;18.556;2023-09-19T13:35:19;2.30;;;1.60;;
20245;SDS011;10281;54.406;18.556;2023-09-19T13:37:46;3.90;;;2.10;;
20245;SDS011;10281;54.406;18.556;2023-09-19T13:40:15;3.37;;;2.10;;
20245;SDS011;10281;54.406;18.556;2023-09-19T13:42:42;2.00;;;1.80;;
20245;SDS011;10281;54.406;18.556;2023-09-19T13:45:09;3.93;;;2.20;;
20245;SDS011;10281;54.406;18.556;2023-09-19T13:47:38;2.63;;;1.70;;
20245;SDS011;10281;54.406;18.556;2023-09-19T13:50:05;3.80;;;2.20;;
20245;SDS011;10281;54.406;18.556;2023-09-19T13:52:33;2.53;;;1.80;;
20245;SDS011;10281;54.406;18.556;2023-09-19T13:55:00;4.73;;;2.23;;
20245;SDS011;10281;54.406;18.556;2023-09-19T13:57:27;1.80;;;1.50;;
20245;SDS011;10281;54.406;18.556;2023-09-19T13:59:55;4.60;;;1.80;;
20245;SDS011;10281;54.406;18.556;2023-09-19T14:02:21;2.93;;;1.90;;
20245;SDS011;10281;54.406;18.556;2023-09-19T14:04:49;2.33;;;1.60;;
20245;SDS011;10281;54.406;18.556;2023-09-19T14:07:16;4.87;;;2.40;;
20245;SDS011;10281;54.406;18.556;2023-09-19T14:09:44;4.30;;;1.73;;
20245;SDS011;10281;54.406;18.556;2023-09-19T14:12:11;5.43;;;2.20;;
20245;SDS011;10281;54.406;18.556;2023-09-19T14:14:38;2.77;;;2.03;;
20245;SDS011;10281;54.406;18.556;2023-09-19T14:17:04;5.00;;;2.10;;
20245;SDS011;10281;54.406;18.556;2023-09-19T14:19:33;3.23;;;1.40;;
20245;SDS011;10281;54.406;18.556;2023-09-19T14:22:01;2.97;;;2.10;;
20245;SDS011;10281;54.406;18.556;2023-09-19T14:24:30;4.40;;;2.23;;
20245;SDS011;10281;54.406;18.556;2023-09-19T14:26:57;2.63;;;1.67;;
20245;SDS011;10281;54.406;18.556;2023-09-19T14:29:25;3.00;;;2.00;;
20245;SDS011;10281;54.406;18.556;2023-09-19T14:31:51;4.50;;;2.33;;
20245;SDS011;10281;54.406;18.556;2023-09-19T14:34:18;29.77;;;12.73;;
20245;SDS011;10281;54.406;18.556;2023-09-19T14:36:45;10.20;;;4.70;;
20245;SDS011;10281;54.406;18.556;2023-09-19T14:39:12;12.73;;;5.27;;
20245;SDS011;10281;54.406;18.556;2023-09-19T14:41:38;9.03;;;4.40;;
20245;SDS011;10281;54.406;18.556;2023-09-19T14:44:05;6.53;;;3.13;;
20245;SDS011;10281;54.406;18.556;2023-09-19T14:46:31;9.63;;;3.53;;
20245;SDS011;10281;54.406;18.556;2023-09-19T14:48:58;7.93;;;3.33;;
20245;SDS011;10281;54.406;18.556;2023-09-19T14:51:25;5.83;;;2.17;;
20245;SDS011;10281;54.406;18.556;2023-09-19T14:53:52;4.37;;;2.20;;
20245;SDS011;10281;54.406;18.556;2023-09-19T14:56:19;7.67;;;4.00;;
20245;SDS011;10281;54.406;18.556;2023-09-19T14:58:47;9.43;;;4.27;;
20245;SDS011;10281;54.406;18.556;2023-09-19T15:01:13;4.77;;;2.67;;
20245;SDS011;10281;54.406;18.556;2023-09-19T15:03:40;6.23;;;2.30;;
20245;SDS011;10281;54.406;18.556;2023-09-19T15:06:10;4.00;;;2.50;;
20245;SDS011;10281;54.406;18.556;2023-09-19T15:08:40;3.00;;;1.90;;
20245;SDS011;10281;54.406;18.556;2023-09-19T15:11:09;6.57;;;3.07;;
20245;SDS011;10281;54.406;18.556;2023-09-19T15:13:38;4.07;;;2.23;;
20245;SDS011;10281;54.406;18.556;2023-09-19T15:16:06;4.07;;;2.57;;
20245;SDS011;10281;54.406;18.556;2023-09-19T15:18:36;4.33;;;2.40;;